Time;durP1;ratioP1;P1;durP2;ratioP2;P2;SDS_P1;SDS_P2;PMS_P1;PMS_P2;Temp;Humidity;BMP_temperature;BMP_pressure;BME280_temperature;BME280_humidity;BME280_pressure;Samples;Min_cycle;Max_cycle;Signal;HPM_P1;HPM_P2
2024/03/14 00:00:49;;;;;;;15.63;9.03;;;12.00;99.90;;;;;;788874;180;26508;-80
2024/03/14 00:03:19;;;;;;;14.27;7.77;;;12.00;99.90;;;;;;785831;180;26451;-80
2024/03/14 00:05:53;;;;;;;64.50;31.10;;;12.00;99.90;;;;;;789227;180;26482;-83
2024/03/14 00:08:20;;;;;;;13.50;8.87;;;12.00;99.90;;;;;;790901;180;26541;-78
2024/03/14 00:10:52;;;;;;;10.30;7.63;;;12.00;99.90;;;;;;790484;180;26474;-80
2024/03/14 00:13:28;;;;;;;15.70;9.97;;;12.00;99.90;;;;;;790137;180;26444;-80
2024/03/14 00:15:57;;;;;;;10.97;8.30;;;12.00;99.90;;;;;;794991;180;26480;-79
2024/03/14 00:18:29;;;;;;;88.87;40.17;;;12.00;99.90;;;;;;786555;180;26542;-82
2024/03/14 00:20:58;;;;;;;70.40;32.03;;;12.00;99.90;;;;;;789139;179;26455;-81
2024/03/14 00:23:26;;;;;;;16.00;10.27;;;11.90;99.90;;;;;;786546;180;26451;-81
2024/03/14 00:28:48;;;;;;;12.97;8.80;;;11.80;99.90;;;;;;783558;180;26446;-80
2024/03/14 00:31:16;;;;;;;14.37;8.97;;;11.80;99.90;;;;;;791458;179;26461;-79
2024/03/14 00:33:48;;;;;;;11.30;8.03;;;11.80;99.90;;;;;;792823;180;26458;-80
2024/03/14 00:36:51;;;;;;;13.47;8.63;;;11.80;99.90;;;;;;789836;180;26502;-78
2024/03/14 00:39:09;;;;;;;11.60;8.17;;;11.90;99.90;;;;;;787214;180;26463;-80
2024/03/14 00:41:39;;;;;;;11.73;9.07;;;11.90;99.90;;;;;;792011;181;26541;-80
2024/03/14 00:44:11;;;;;;;11.87;8.23;;;11.90;99.90;;;;;;789895;180;26438;-78
2024/03/14 00:46:46;;;;;;;12.33;8.30;;;12.00;99.90;;;;;;787653;181;26456;-79
2024/03/14 00:49:15;;;;;;;14.17;8.50;;;12.00;99.90;;;;;;788895;180;26576;-80
2024/03/14 00:51:44;;;;;;;25.23;14.17;;;12.00;99.90;;;;;;788549;180;26455;-80
2024/03/14 00:54:17;;;;;;;18.80;11.63;;;12.00;99.90;;;;;;786032;180;27090;-78
2024/03/14 00:56:59;;;;;;;26.13;14.47;;;12.00;99.90;;;;;;787199;180;26434;-80
2024/03/14 00:59:30;;;;;;;14.83;10.00;;;12.00;99.90;;;;;;786433;180;26473;-81
2024/03/14 01:01:59;;;;;;;29.90;18.10;;;12.00;99.90;;;;;;784959;171;26498;-77
2024/03/14 01:04:30;;;;;;;13.60;9.77;;;12.00;99.90;;;;;;806531;176;26988;-79
2024/03/14 01:07:02;;;;;;;14.87;9.27;;;11.90;99.90;;;;;;818757;174;26438;-79
2024/03/14 01:09:50;;;;;;;16.27;8.40;;;11.90;99.90;;;;;;817279;174;26389;-79
2024/03/14 01:12:20;;;;;;;12.30;9.10;;;11.90;99.90;;;;;;803704;174;26478;-79
2024/03/14 01:14:54;;;;;;;16.50;10.03;;;11.80;99.90;;;;;;795880;177;26500;-79
2024/03/14 01:17:26;;;;;;;16.67;9.17;;;11.70;99.90;;;;;;806573;177;26449;-78
2024/03/14 01:20:02;;;;;;;14.43;9.33;;;11.70;99.90;;;;;;802499;175;26447;-76
2024/03/14 01:22:33;;;;;;;13.73;8.73;;;11.60;99.90;;;;;;807745;176;26551;-77
2024/03/14 01:25:06;;;;;;;17.37;10.07;;;11.50;99.90;;;;;;804401;177;26441;-79
2024/03/14 01:27:40;;;;;;;30.13;16.63;;;11.40;99.90;;;;;;800746;177;26449;-77
2024/03/14 01:30:17;;;;;;;38.43;22.47;;;11.40;99.90;;;;;;802342;177;26459;-79
2024/03/14 01:32:49;;;;;;;19.93;12.67;;;11.40;99.90;;;;;;801593;174;26513;-80
2024/03/14 01:35:16;;;;;;;16.63;10.53;;;11.40;99.90;;;;;;797249;177;27148;-79
2024/03/14 01:37:44;;;;;;;13.90;9.40;;;11.40;99.90;;;;;;803068;177;26476;-80
2024/03/14 01:40:19;;;;;;;17.10;9.70;;;11.40;99.90;;;;;;802226;177;26570;-80
2024/03/14 01:42:53;;;;;;;12.60;9.13;;;11.50;99.90;;;;;;785959;177;26457;-80
2024/03/14 01:45:25;;;;;;;12.97;9.53;;;11.50;99.90;;;;;;802191;177;27034;-79
2024/03/14 01:48:11;;;;;;;15.53;9.60;;;11.50;99.90;;;;;;800215;177;26438;-79
2024/03/14 01:50:51;;;;;;;15.20;8.90;;;11.50;99.90;;;;;;796555;178;26455;-79
2024/03/14 01:56:04;;;;;;;17.73;9.13;;;11.70;99.90;;;;;;758077;179;26482;-80
2024/03/14 01:58:32;;;;;;;13.67;9.37;;;11.60;99.90;;;;;;818270;173;26427;-80
2024/03/14 02:00:59;;;;;;;14.50;9.77;;;11.60;99.90;;;;;;818204;174;26436;-79
2024/03/14 02:03:24;;;;;;;15.73;9.27;;;11.60;99.90;;;;;;825632;173;26406;-80
2024/03/14 02:05:50;;;;;;;14.53;9.27;;;11.60;99.90;;;;;;823930;173;26470;-79
2024/03/14 02:08:17;;;;;;;14.70;9.63;;;11.50;99.90;;;;;;821182;173;26643;-79
2024/03/14 02:10:43;;;;;;;14.37;10.10;;;11.50;99.90;;;;;;824939;173;26442;-80
2024/03/14 02:13:10;;;;;;;13.87;10.00;;;11.50;99.90;;;;;;826809;172;26405;-79
2024/03/14 02:15:38;;;;;;;13.43;9.90;;;11.50;99.90;;;;;;820733;173;26552;-80
2024/03/14 02:18:04;;;;;;;13.50;9.87;;;11.50;99.90;;;;;;826009;173;26444;-80
2024/03/14 02:20:30;;;;;;;14.27;10.20;;;11.40;99.90;;;;;;826664;173;26435;-78
2024/03/14 02:22:57;;;;;;;16.93;10.60;;;11.40;99.90;;;;;;824930;173;26432;-79
2024/03/14 02:25:25;;;;;;;18.97;10.37;;;11.40;99.90;;;;;;826901;173;26417;-79
2024/03/14 02:27:50;;;;;;;14.37;9.90;;;11.40;99.90;;;;;;824225;173;26424;-78
2024/03/14 02:30:17;;;;;;;17.87;10.30;;;11.40;99.90;;;;;;825091;173;26414;-78
2024/03/14 02:32:43;;;;;;;15.73;10.07;;;11.40;99.90;;;;;;826408;171;26393;-78
2024/03/14 02:35:09;;;;;;;16.63;10.40;;;11.30;99.90;;;;;;825973;173;26401;-80
2024/03/14 02:37:36;;;;;;;14.17;9.97;;;11.20;99.90;;;;;;827606;172;26571;-79
2024/03/14 02:40:05;;;;;;;17.23;10.70;;;11.10;99.90;;;;;;826615;172;26420;-80
2024/03/14 02:42:29;;;;;;;12.63;9.80;;;11.10;99.90;;;;;;826959;172;26412;-79
2024/03/14 02:44:56;;;;;;;14.47;9.07;;;11.00;99.90;;;;;;825365;173;26387;-80
2024/03/14 02:47:23;;;;;;;14.93;9.87;;;11.00;99.90;;;;;;824321;172;26555;-80
2024/03/14 02:49:49;;;;;;;14.00;9.60;;;10.90;99.90;;;;;;827709;172;26450;-80
2024/03/14 02:52:16;;;;;;;12.03;9.07;;;10.80;99.90;;;;;;826197;172;26984;-80
2024/03/14 02:54:42;;;;;;;15.20;10.50;;;10.70;99.90;;;;;;829346;172;26470;-81
2024/03/14 02:57:11;;;;;;;17.10;10.70;;;10.60;99.90;;;;;;825203;172;26946;-80
2024/03/14 02:59:36;;;;;;;16.67;9.27;;;10.60;99.90;;;;;;826924;172;26446;-81
2024/03/14 03:02:03;;;;;;;13.80;10.10;;;10.50;99.90;;;;;;826217;173;26412;-81
2024/03/14 03:04:30;;;;;;;16.23;9.77;;;10.50;99.90;;;;;;825308;173;26926;-81
2024/03/14 03:06:58;;;;;;;20.13;11.93;;;10.50;99.90;;;;;;826994;172;26421;-80
2024/03/14 03:09:22;;;;;;;15.10;11.00;;;10.50;99.90;;;;;;822329;172;26428;-81
2024/03/14 03:11:49;;;;;;;18.30;11.10;;;10.60;99.90;;;;;;823490;173;26419;-80
2024/03/14 03:14:15;;;;;;;20.77;11.43;;;10.60;99.90;;;;;;824191;173;26566;-80
2024/03/14 03:16:44;;;;;;;16.00;10.53;;;10.50;99.90;;;;;;825377;172;26404;-80
2024/03/14 03:19:09;;;;;;;17.43;10.47;;;10.40;99.90;;;;;;821945;173;26460;-79
2024/03/14 03:21:37;;;;;;;16.83;10.80;;;10.40;99.90;;;;;;824998;173;26439;-79
2024/03/14 03:24:04;;;;;;;14.73;10.23;;;10.30;99.90;;;;;;821399;173;26416;-79
2024/03/14 03:26:30;;;;;;;16.00;10.13;;;10.30;99.90;;;;;;825483;173;26960;-79
2024/03/14 03:28:56;;;;;;;17.60;10.93;;;10.20;99.90;;;;;;822019;173;26438;-79
2024/03/14 03:31:24;;;;;;;17.93;11.43;;;10.10;99.90;;;;;;825634;173;26405;-81
2024/03/14 03:33:51;;;;;;;14.97;10.73;;;10.00;99.90;;;;;;822212;173;26408;-81
2024/03/14 03:36:17;;;;;;;19.97;12.60;;;9.90;99.90;;;;;;827506;172;26936;-80
2024/03/14 03:38:45;;;;;;;21.93;12.50;;;9.90;99.90;;;;;;827495;173;26434;-80
2024/03/14 03:41:10;;;;;;;18.80;11.93;;;9.90;99.90;;;;;;827161;173;26432;-80
2024/03/14 03:43:37;;;;;;;17.40;11.17;;;9.80;99.90;;;;;;826700;171;26416;-79
2024/03/14 03:46:06;;;;;;;18.73;10.83;;;9.90;99.90;;;;;;825879;173;26408;-79
2024/03/14 03:48:30;;;;;;;19.57;11.00;;;10.00;99.90;;;;;;828071;172;26454;-80
2024/03/14 03:50:57;;;;;;;16.17;10.17;;;9.90;99.90;;;;;;826785;172;26984;-79
2024/03/14 03:53:24;;;;;;;18.17;10.17;;;10.00;99.90;;;;;;828401;172;27003;-79
2024/03/14 03:55:50;;;;;;;16.97;11.10;;;9.90;99.90;;;;;;828560;172;26410;-79
2024/03/14 03:58:17;;;;;;;15.57;9.90;;;9.90;99.90;;;;;;827989;172;26448;-81
2024/03/14 04:00:45;;;;;;;18.20;10.17;;;9.90;99.90;;;;;;821076;173;27655;-81
2024/03/14 04:03:12;;;;;;;15.47;10.70;;;10.00;99.90;;;;;;826631;172;26398;-81
2024/03/14 04:05:39;;;;;;;16.13;9.60;;;9.90;99.90;;;;;;827631;173;26486;-79
2024/03/14 04:08:06;;;;;;;17.87;11.10;;;9.90;99.90;;;;;;825072;172;26428;-80
2024/03/14 04:10:33;;;;;;;16.73;10.47;;;9.90;99.90;;;;;;826600;172;26583;-79
2024/03/14 04:13:00;;;;;;;15.23;9.27;;;9.90;99.90;;;;;;822150;173;26415;-80
2024/03/14 04:15:25;;;;;;;12.90;8.87;;;9.90;99.90;;;;;;825620;172;26936;-80
2024/03/14 04:17:53;;;;;;;14.67;8.60;;;9.90;99.90;;;;;;826204;172;26553;-80
2024/03/14 04:20:19;;;;;;;12.73;9.07;;;10.00;99.90;;;;;;826516;172;26410;-80
2024/03/14 04:22:45;;;;;;;14.43;9.67;;;10.00;99.90;;;;;;822076;173;26412;-80
2024/03/14 04:25:14;;;;;;;12.37;9.37;;;9.90;99.90;;;;;;824769;173;26480;-80
2024/03/14 04:27:41;;;;;;;13.37;9.97;;;9.90;99.90;;;;;;826833;173;26415;-79
2024/03/14 04:30:06;;;;;;;16.73;10.20;;;9.80;99.90;;;;;;821981;173;27100;-80
2024/03/14 04:32:32;;;;;;;14.47;9.33;;;9.80;99.90;;;;;;822793;173;26410;-79
2024/03/14 04:35:01;;;;;;;14.60;10.03;;;9.80;99.90;;;;;;822408;173;26948;-79
2024/03/14 04:37:26;;;;;;;16.47;10.00;;;9.70;99.90;;;;;;822326;173;26389;-79
2024/03/14 04:39:53;;;;;;;18.53;10.77;;;9.70;99.90;;;;;;825241;173;27026;-79
2024/03/14 04:42:20;;;;;;;16.17;10.30;;;9.70;99.90;;;;;;822553;173;26413;-79
2024/03/14 04:44:46;;;;;;;14.97;10.63;;;9.70;99.90;;;;;;827785;173;26422;-79
2024/03/14 04:47:12;;;;;;;15.50;10.53;;;9.60;99.90;;;;;;825823;173;26406;-79
2024/03/14 04:49:39;;;;;;;15.67;11.23;;;9.60;99.90;;;;;;824939;173;26426;-79
2024/03/14 04:52:05;;;;;;;17.47;10.67;;;9.60;99.90;;;;;;820276;173;26398;-79
2024/03/14 04:54:33;;;;;;;19.07;11.33;;;9.50;99.90;;;;;;828062;171;26386;-79
2024/03/14 04:57:01;;;;;;;18.80;11.20;;;9.50;99.90;;;;;;831330;172;26465;-82
2024/03/14 04:59:26;;;;;;;18.93;11.87;;;9.60;99.90;;;;;;830881;172;26412;-80
2024/03/14 05:01:53;;;;;;;18.80;11.67;;;9.60;99.90;;;;;;828499;172;26409;-82
2024/03/14 05:04:19;;;;;;;16.77;10.70;;;9.50;99.90;;;;;;826571;173;26420;-80
2024/03/14 05:06:46;;;;;;;19.10;12.40;;;9.50;99.90;;;;;;825175;172;26424;-80
2024/03/14 05:09:13;;;;;;;17.93;12.57;;;9.40;99.90;;;;;;825897;172;26446;-79
2024/03/14 05:11:39;;;;;;;19.63;12.60;;;9.40;99.90;;;;;;828900;173;26409;-80
2024/03/14 05:14:06;;;;;;;20.47;13.27;;;9.40;99.90;;;;;;829286;172;26402;-81
2024/03/14 05:16:33;;;;;;;20.80;12.10;;;9.40;99.90;;;;;;826834;172;26620;-81
2024/03/14 05:19:00;;;;;;;21.73;13.13;;;9.40;99.90;;;;;;828828;173;26443;-81
2024/03/14 05:21:26;;;;;;;20.77;13.47;;;9.40;99.90;;;;;;829461;172;26979;-81
2024/03/14 05:23:54;;;;;;;19.37;12.63;;;9.40;99.90;;;;;;825603;173;26381;-79
2024/03/14 05:26:19;;;;;;;20.00;12.97;;;9.30;99.90;;;;;;829131;172;26401;-79
2024/03/14 05:28:46;;;;;;;22.20;14.20;;;9.30;99.90;;;;;;825046;172;26590;-79
2024/03/14 05:31:13;;;;;;;19.73;13.93;;;9.30;99.90;;;;;;828608;172;26442;-81
2024/03/14 05:33:40;;;;;;;19.37;13.60;;;9.30;99.90;;;;;;825102;173;26426;-80
2024/03/14 05:36:07;;;;;;;21.83;13.53;;;9.30;99.90;;;;;;827772;173;26406;-80
2024/03/14 05:38:33;;;;;;;22.87;13.80;;;9.30;99.90;;;;;;826867;173;26418;-81
2024/03/14 05:40:59;;;;;;;21.47;12.97;;;9.20;99.90;;;;;;825095;173;26428;-80
2024/03/14 05:43:26;;;;;;;21.40;13.33;;;9.20;99.90;;;;;;824395;173;26401;-80
2024/03/14 05:45:52;;;;;;;21.87;12.90;;;9.10;99.90;;;;;;826795;173;26423;-81
2024/03/14 05:48:23;;;;;;;23.37;13.27;;;9.10;99.90;;;;;;824639;173;26418;-80
2024/03/14 05:50:46;;;;;;;21.30;14.40;;;9.10;99.90;;;;;;826283;173;26410;-80
2024/03/14 05:53:12;;;;;;;22.40;13.37;;;9.10;99.90;;;;;;823835;173;26401;-80
2024/03/14 05:55:39;;;;;;;23.10;13.07;;;9.10;99.90;;;;;;826226;173;26930;-81
2024/03/14 05:58:06;;;;;;;22.87;12.23;;;9.00;99.90;;;;;;826048;173;26429;-81
2024/03/14 06:00:33;;;;;;;21.57;13.33;;;9.10;99.90;;;;;;828013;173;26406;-80
2024/03/14 06:02:59;;;;;;;23.63;14.00;;;9.00;99.90;;;;;;824337;173;26427;-80
2024/03/14 06:05:27;;;;;;;22.03;14.43;;;9.10;99.90;;;;;;824635;173;26421;-79
2024/03/14 06:07:53;;;;;;;22.37;13.33;;;9.10;99.90;;;;;;827532;171;26388;-80
2024/03/14 06:10:21;;;;;;;20.40;14.10;;;9.10;99.90;;;;;;829571;172;26473;-80
2024/03/14 06:12:46;;;;;;;20.70;13.77;;;9.10;99.90;;;;;;828616;172;26567;-80
2024/03/14 06:15:13;;;;;;;21.87;14.17;;;9.10;99.90;;;;;;828214;172;26397;-81
2024/03/14 06:17:40;;;;;;;22.30;14.90;;;9.10;99.90;;;;;;824561;172;26957;-82
2024/03/14 06:20:07;;;;;;;23.70;14.50;;;9.00;99.90;;;;;;821807;173;26606;-81
2024/03/14 06:22:39;;;;;;;25.20;14.60;;;9.10;99.90;;;;;;827803;172;26401;-81
2024/03/14 06:25:07;;;;;;;22.80;12.90;;;9.10;99.90;;;;;;823789;173;26399;-81
2024/03/14 06:27:41;;;;;;;21.07;14.30;;;9.10;99.90;;;;;;820751;173;26407;-80
2024/03/14 06:30:11;;;;;;;20.50;13.47;;;9.10;99.90;;;;;;824128;172;26433;-82
2024/03/14 06:32:36;;;;;;;23.03;14.70;;;9.10;99.90;;;;;;824718;172;26921;-81
2024/03/14 06:35:06;;;;;;;24.30;14.77;;;9.20;99.90;;;;;;826498;172;26396;-81
2024/03/14 06:37:31;;;;;;;23.10;14.90;;;9.20;99.90;;;;;;824938;172;26421;-81
2024/03/14 06:39:58;;;;;;;22.73;14.13;;;9.20;99.90;;;;;;827564;172;26430;-82
2024/03/14 06:42:25;;;;;;;24.10;16.33;;;9.30;99.90;;;;;;826363;173;26406;-81
2024/03/14 06:44:51;;;;;;;24.43;15.17;;;9.30;99.90;;;;;;827982;173;26466;-80
2024/03/14 06:47:20;;;;;;;23.60;15.33;;;9.30;99.90;;;;;;825973;173;26545;-82
2024/03/14 06:49:45;;;;;;;24.90;15.90;;;9.30;99.90;;;;;;819724;173;26578;-81
2024/03/14 06:52:12;;;;;;;25.93;15.87;;;9.30;99.90;;;;;;824197;173;26398;-81
2024/03/14 06:54:38;;;;;;;26.53;15.83;;;9.40;99.90;;;;;;823185;173;26739;-80
2024/03/14 06:57:09;;;;;;;24.27;15.90;;;9.40;99.90;;;;;;818498;173;26417;-80
2024/03/14 06:59:33;;;;;;;24.43;15.27;;;9.50;99.90;;;;;;825503;173;27001;-80
2024/03/14 07:02:00;;;;;;;21.53;14.47;;;9.60;99.90;;;;;;823806;173;26390;-79
2024/03/14 07:04:26;;;;;;;21.47;14.70;;;9.70;99.90;;;;;;815412;171;26484;-81
2024/03/14 07:06:51;;;;;;;29.20;15.47;;;9.80;99.90;;;;;;831912;173;26392;-82
2024/03/14 07:09:18;;;;;;;21.43;14.90;;;9.90;99.90;;;;;;816887;173;26452;-81
2024/03/14 07:11:45;;;;;;;23.33;13.73;;;10.10;99.90;;;;;;817420;175;26395;-81
2024/03/14 07:14:29;;;;;;;29.23;14.93;;;10.20;99.90;;;;;;817256;175;26414;-82
2024/03/14 07:16:53;;;;;;;19.57;14.33;;;10.30;99.90;;;;;;821307;175;26424;-81
2024/03/14 07:19:22;;;;;;;21.13;12.87;;;10.40;99.90;;;;;;817740;174;26452;-82
2024/03/14 07:21:50;;;;;;;30.47;14.13;;;10.50;99.90;;;;;;818652;173;26397;-82
2024/03/14 07:24:17;;;;;;;22.50;13.43;;;10.40;99.90;;;;;;816096;175;26567;-82
2024/03/14 07:26:43;;;;;;;21.00;12.97;;;10.40;99.90;;;;;;818172;174;26453;-82
2024/03/14 07:29:10;;;;;;;19.90;13.07;;;10.40;99.90;;;;;;816482;175;26425;-82
2024/03/14 07:31:38;;;;;;;25.87;12.93;;;10.50;99.90;;;;;;815967;175;26423;-82
2024/03/14 07:34:06;;;;;;;17.33;12.97;;;10.50;99.90;;;;;;814233;175;26401;-82
2024/03/14 07:36:31;;;;;;;17.17;12.23;;;10.60;99.90;;;;;;814746;175;27183;-82
2024/03/14 07:38:57;;;;;;;20.80;12.70;;;10.60;99.90;;;;;;813274;175;26449;-82
2024/03/14 07:41:25;;;;;;;20.77;13.17;;;10.70;99.90;;;;;;815369;174;26420;-82
2024/03/14 07:43:53;;;;;;;17.17;11.73;;;10.80;99.90;;;;;;816154;175;26408;-82
2024/03/14 07:46:18;;;;;;;18.83;12.33;;;10.90;99.90;;;;;;813224;175;26413;-82
2024/03/14 07:48:46;;;;;;;19.07;11.47;;;10.90;99.90;;;;;;816622;175;26460;-82
2024/03/14 07:51:13;;;;;;;16.30;10.57;;;10.90;99.90;;;;;;815407;175;26413;-82
2024/03/14 07:53:37;;;;;;;14.67;10.30;;;11.00;99.90;;;;;;816672;175;26401;-82
2024/03/14 07:56:09;;;;;;;14.10;10.93;;;11.10;99.90;;;;;;815546;175;26409;-82
2024/03/14 07:58:30;;;;;;;17.07;11.07;;;11.30;99.90;;;;;;811282;175;26567;-82
2024/03/14 08:00:57;;;;;;;15.83;10.37;;;11.30;99.90;;;;;;816798;175;26402;-82
2024/03/14 08:03:23;;;;;;;17.03;10.43;;;11.40;99.90;;;;;;812122;175;26913;-83
2024/03/14 08:05:50;;;;;;;14.80;9.83;;;11.50;99.90;;;;;;815161;175;26435;-82
2024/03/14 08:08:17;;;;;;;12.93;9.33;;;11.60;99.90;;;;;;816742;175;26419;-82
2024/03/14 08:10:46;;;;;;;17.20;9.43;;;11.80;99.90;;;;;;815168;175;26418;-82
2024/03/14 08:13:21;;;;;;;15.63;9.27;;;11.90;99.90;;;;;;814041;175;26398;-83
2024/03/14 08:15:59;;;;;;;16.57;9.60;;;12.00;99.90;;;;;;815574;175;26962;-83
2024/03/14 08:18:24;;;;;;;14.87;9.37;;;12.00;99.90;;;;;;815056;175;26433;-83
2024/03/14 08:20:55;;;;;;;17.93;9.87;;;12.10;99.90;;;;;;816474;175;26394;-82
2024/03/14 08:23:17;;;;;;;13.43;9.33;;;12.20;99.90;;;;;;813098;175;26394;-82
2024/03/14 08:25:46;;;;;;;15.20;9.83;;;12.20;99.90;;;;;;814992;175;26417;-82
2024/03/14 08:28:11;;;;;;;14.20;9.47;;;12.30;99.90;;;;;;819405;175;26431;-82
2024/03/14 08:30:39;;;;;;;11.97;8.80;;;12.40;99.90;;;;;;819575;173;26570;-82
2024/03/14 08:33:04;;;;;;;15.47;9.00;;;12.50;99.90;;;;;;818452;175;26424;-82
2024/03/14 08:35:33;;;;;;;14.00;9.07;;;12.50;99.90;;;;;;819032;172;26526;-81
2024/03/14 08:37:58;;;;;;;14.57;9.53;;;12.60;99.90;;;;;;815961;175;26424;-82
2024/03/14 08:40:24;;;;;;;12.90;9.07;;;12.60;99.90;;;;;;814287;175;26434;-82
2024/03/14 08:42:52;;;;;;;12.67;8.87;;;12.50;99.90;;;;;;814971;175;26422;-82
2024/03/14 08:45:18;;;;;;;13.57;8.93;;;12.40;99.90;;;;;;821195;175;26397;-81
2024/03/14 08:47:45;;;;;;;15.60;9.40;;;12.50;99.90;;;;;;818953;175;26397;-83
2024/03/14 08:50:13;;;;;;;13.57;8.73;;;12.60;99.90;;;;;;817917;175;26420;-83
2024/03/14 08:52:38;;;;;;;14.13;9.00;;;12.70;99.90;;;;;;810542;175;26374;-82
2024/03/14 08:55:23;;;;;;;15.87;8.90;;;12.70;99.90;;;;;;815220;175;26429;-83
2024/03/14 08:57:33;;;;;;;10.83;8.50;;;12.80;99.90;;;;;;815287;175;26408;-83
2024/03/14 08:59:59;;;;;;;12.83;8.33;;;12.90;99.90;;;;;;817652;175;26432;-82
2024/03/14 09:02:27;;;;;;;13.30;8.60;;;12.80;99.90;;;;;;815639;176;26960;-85
2024/03/14 09:04:53;;;;;;;12.37;8.17;;;12.70;99.90;;;;;;821341;175;26424;-83
2024/03/14 09:07:18;;;;;;;13.47;8.57;;;12.80;99.90;;;;;;816289;175;26409;-83
2024/03/14 09:09:45;;;;;;;13.87;8.83;;;12.90;99.90;;;;;;818035;175;26407;-83
2024/03/14 09:12:22;;;;;;;12.93;8.37;;;12.90;99.90;;;;;;816458;175;26414;-81
2024/03/14 09:14:42;;;;;;;11.43;8.30;;;12.90;99.90;;;;;;812875;175;26411;-81
2024/03/14 09:17:08;;;;;;;18.27;9.30;;;13.10;99.90;;;;;;814035;175;26406;-82
2024/03/14 09:19:35;;;;;;;15.23;7.97;;;13.20;99.90;;;;;;814265;175;26644;-81
2024/03/14 09:22:01;;;;;;;12.00;7.40;;;13.30;99.90;;;;;;816168;175;26402;-82
2024/03/14 09:24:28;;;;;;;10.40;7.20;;;13.60;99.90;;;;;;817860;175;26426;-82
2024/03/14 09:26:55;;;;;;;9.83;7.30;;;13.70;99.90;;;;;;816868;172;26427;-82
2024/03/14 09:29:23;;;;;;;10.17;7.13;;;13.80;99.90;;;;;;815351;173;27058;-82
2024/03/14 09:31:49;;;;;;;10.77;7.13;;;13.90;99.90;;;;;;813810;175;26549;-82
2024/03/14 09:34:17;;;;;;;9.87;7.00;;;13.90;99.90;;;;;;815885;175;26413;-82
2024/03/14 09:36:43;;;;;;;10.67;6.37;;;13.90;99.90;;;;;;815527;175;26417;-82
2024/03/14 09:39:18;;;;;;;10.63;6.80;;;14.20;99.90;;;;;;813639;175;26430;-81
2024/03/14 09:41:40;;;;;;;8.40;5.73;;;14.20;99.90;;;;;;818444;174;26582;-81
2024/03/14 09:44:07;;;;;;;12.73;7.07;;;14.30;99.90;;;;;;818949;173;26404;-81
2024/03/14 09:46:34;;;;;;;11.43;6.70;;;14.40;99.90;;;;;;820229;175;26497;-81
2024/03/14 09:49:01;;;;;;;9.27;6.50;;;14.20;99.90;;;;;;817681;175;26427;-81
2024/03/14 09:51:27;;;;;;;14.50;6.80;;;14.30;99.90;;;;;;815282;175;26441;-81
2024/03/14 09:53:54;;;;;;;11.67;7.03;;;14.20;99.90;;;;;;815981;175;26396;-82
2024/03/14 09:56:20;;;;;;;10.13;6.40;;;14.40;99.90;;;;;;820790;175;26956;-82
2024/03/14 09:58:46;;;;;;;11.00;6.00;;;14.50;99.90;;;;;;816059;174;26586;-82
2024/03/14 10:01:13;;;;;;;9.67;6.53;;;14.60;99.90;;;;;;814735;175;26413;-81
2024/03/14 10:03:40;;;;;;;14.17;7.27;;;14.50;99.90;;;;;;817355;175;26404;-81
2024/03/14 10:06:15;;;;;;;12.13;6.87;;;14.50;99.90;;;;;;822701;175;26405;-82
2024/03/14 10:08:33;;;;;;;12.33;7.03;;;14.50;99.90;;;;;;815265;176;26418;-82
2024/03/14 10:11:00;;;;;;;9.30;6.63;;;14.50;99.90;;;;;;812805;175;26932;-83
2024/03/14 10:13:26;;;;;;;14.87;7.37;;;14.60;99.90;;;;;;817042;174;26548;-82
2024/03/14 10:15:54;;;;;;;11.83;7.60;;;14.70;99.90;;;;;;815468;175;26389;-81
2024/03/14 10:18:19;;;;;;;19.67;9.33;;;14.70;99.90;;;;;;818542;175;26983;-82
2024/03/14 10:20:46;;;;;;;17.43;7.83;;;14.70;99.90;;;;;;816302;175;26413;-82
2024/03/14 10:23:15;;;;;;;13.70;7.63;;;14.70;99.90;;;;;;818096;172;26564;-84
2024/03/14 10:25:41;;;;;;;13.20;6.97;;;14.70;99.90;;;;;;813577;175;26435;-82
2024/03/14 10:28:17;;;;;;;12.50;8.37;;;14.90;99.90;;;;;;815868;175;26484;-83
2024/03/14 10:30:35;;;;;;;11.57;7.90;;;14.80;99.90;;;;;;815974;175;26408;-83
2024/03/14 10:33:01;;;;;;;14.17;8.03;;;14.90;99.90;;;;;;815986;175;26420;-83
2024/03/14 10:35:30;;;;;;;14.07;8.03;;;15.00;99.90;;;;;;815620;175;26412;-83
2024/03/14 10:37:57;;;;;;;14.50;8.57;;;15.00;99.90;;;;;;816878;175;27612;-83
2024/03/14 10:40:27;;;;;;;14.40;8.57;;;15.10;99.90;;;;;;819528;175;26421;-83
2024/03/14 10:42:49;;;;;;;11.53;7.60;;;15.30;99.90;;;;;;820463;175;26440;-81
2024/03/14 10:45:17;;;;;;;11.63;7.87;;;15.50;99.90;;;;;;815615;175;26415;-81
2024/03/14 10:47:43;;;;;;;11.43;7.10;;;15.60;99.90;;;;;;816808;172;26428;-81
2024/03/14 10:50:12;;;;;;;11.27;7.43;;;15.70;99.90;;;;;;817861;172;26456;-81
2024/03/14 10:52:38;;;;;;;11.20;7.17;;;15.80;99.90;;;;;;813306;174;26394;-82
2024/03/14 10:55:07;;;;;;;10.87;6.60;;;15.90;99.90;;;;;;818943;174;26404;-83
2024/03/14 10:57:33;;;;;;;10.83;7.03;;;15.90;99.90;;;;;;815665;175;26962;-82
2024/03/14 10:59:58;;;;;;;10.80;7.23;;;16.00;99.90;;;;;;818238;175;26412;-82
2024/03/14 11:02:25;;;;;;;11.50;7.73;;;15.90;99.90;;;;;;819581;174;26401;-82
2024/03/14 11:04:51;;;;;;;9.60;7.47;;;15.80;99.90;;;;;;815858;175;26425;-82
2024/03/14 11:07:19;;;;;;;10.10;6.60;;;16.00;99.90;;;;;;817146;175;26410;-82
2024/03/14 11:09:49;;;;;;;8.67;6.50;;;17.00;99.50;;;;;;818412;175;26445;-82
2024/03/14 11:12:15;;;;;;;8.80;6.40;;;17.50;97.20;;;;;;815344;175;26452;-82
2024/03/14 11:14:41;;;;;;;8.57;5.93;;;18.30;95.20;;;;;;814501;175;26462;-83
2024/03/14 11:17:09;;;;;;;8.47;6.50;;;19.50;92.90;;;;;;816608;175;26961;-83
2024/03/14 11:19:35;;;;;;;6.47;5.77;;;20.70;84.30;;;;;;815916;175;26957;-83
2024/03/14 11:22:02;;;;;;;5.60;5.00;;;21.50;83.20;;;;;;816358;175;26392;-83
2024/03/14 11:24:30;;;;;;;6.83;4.90;;;21.40;77.50;;;;;;819107;175;26962;-82
2024/03/14 11:26:58;;;;;;;11.07;5.90;;;21.80;73.80;;;;;;816406;175;26400;-82
2024/03/14 11:29:23;;;;;;;6.73;4.97;;;22.50;79.70;;;;;;811940;175;26998;-83
2024/03/14 11:31:50;;;;;;;8.63;5.03;;;23.10;64.50;;;;;;816952;175;26408;-83
2024/03/14 11:34:17;;;;;;;8.43;5.70;;;22.60;60.10;;;;;;809899;175;26418;-82
2024/03/14 11:36:43;;;;;;;8.00;5.67;;;21.80;62.80;;;;;;816250;175;26928;-83
2024/03/14 11:39:15;;;;;;;6.53;5.10;;;22.00;63.10;;;;;;815008;175;26422;-82
2024/03/14 11:41:42;;;;;;;7.60;5.67;;;21.80;68.60;;;;;;812924;176;26940;-82
2024/03/14 11:44:14;;;;;;;7.53;6.00;;;21.90;63.60;;;;;;819110;175;26412;-82
2024/03/14 11:46:39;;;;;;;8.60;5.90;;;21.50;66.60;;;;;;813343;175;26381;-82
2024/03/14 11:49:15;;;;;;;7.87;5.90;;;22.00;64.80;;;;;;814340;175;26412;-83
2024/03/14 11:51:42;;;;;;;6.80;5.83;;;22.40;62.40;;;;;;818154;175;26375;-81
2024/03/14 11:54:10;;;;;;;7.47;5.63;;;22.90;65.60;;;;;;815298;172;26401;-81
2024/03/14 11:56:34;;;;;;;7.43;5.00;;;23.20;57.00;;;;;;815818;175;26364;-82
2024/03/14 11:59:01;;;;;;;5.70;4.73;;;23.90;57.50;;;;;;818810;175;26978;-83
2024/03/14 12:01:31;;;;;;;8.57;4.53;;;24.20;53.50;;;;;;815961;175;26520;-81
2024/03/14 12:03:57;;;;;;;7.60;5.27;;;24.50;54.60;;;;;;817710;175;26396;-82
2024/03/14 12:06:25;;;;;;;4.80;4.30;;;24.80;51.20;;;;;;815785;174;26431;-83
2024/03/14 12:08:51;;;;;;;7.43;4.43;;;24.20;51.30;;;;;;816676;175;26420;-82
2024/03/14 12:11:14;;;;;;;5.77;4.30;;;23.70;52.70;;;;;;816127;175;26599;-82
2024/03/14 12:13:41;;;;;;;7.97;4.77;;;24.00;54.60;;;;;;816667;175;26394;-83
2024/03/14 12:16:08;;;;;;;5.43;4.30;;;24.70;50.30;;;;;;819606;175;26403;-83
2024/03/14 12:18:35;;;;;;;6.20;4.50;;;25.10;54.60;;;;;;816850;175;26470;-83
2024/03/14 12:21:01;;;;;;;5.73;4.93;;;25.50;52.30;;;;;;813116;175;26397;-82
2024/03/14 12:23:28;;;;;;;6.93;4.97;;;25.20;47.00;;;;;;815197;174;26398;-82
2024/03/14 12:25:55;;;;;;;8.07;4.67;;;24.90;55.60;;;;;;817603;175;26407;-82
2024/03/14 12:28:21;;;;;;;6.40;4.93;;;24.50;51.70;;;;;;816886;175;26421;-81
2024/03/14 12:30:56;;;;;;;7.23;4.87;;;24.40;53.80;;;;;;818952;175;26412;-81
2024/03/14 12:33:18;;;;;;;6.83;5.20;;;25.10;52.10;;;;;;817497;175;26412;-81
2024/03/14 12:35:44;;;;;;;7.83;4.93;;;24.90;49.10;;;;;;819209;175;26947;-80
2024/03/14 12:38:11;;;;;;;6.03;4.93;;;25.30;51.90;;;;;;816684;175;26437;-82
2024/03/14 12:40:38;;;;;;;8.10;5.33;;;24.20;54.00;;;;;;816792;175;26401;-81
2024/03/14 12:43:06;;;;;;;8.53;5.47;;;24.10;51.10;;;;;;810245;175;26394;-82